ROYN(METAR)
08/15 04:00
METAR ROYN 141900Z AUTO VRB02KT 9999 NCD 27/25 Q1008 RMK A2979=
戻る
トップページへ戻る
IMOC Co,.Ltd.